sensor_id;sensor_type;location;lat;lon;timestamp;P1;durP1;ratioP1;P2;durP2;ratioP2
77880;SDS011;67077;50.298;18.996;2023-05-07T05:50:14;3.70;;;2.40;;
77880;SDS011;67077;50.298;18.996;2023-05-07T05:52:43;3.50;;;2.40;;
77880;SDS011;67077;50.298;18.996;2023-05-07T05:55:11;4.30;;;2.60;;
77880;SDS011;67077;50.298;18.996;2023-05-07T05:57:39;3.70;;;2.40;;
77880;SDS011;67077;50.298;18.996;2023-05-07T06:00:08;4.50;;;2.40;;
77880;SDS011;67077;50.298;18.996;2023-05-07T06:02:37;2.80;;;2.20;;
77880;SDS011;67077;50.298;18.996;2023-05-07T06:05:05;4.60;;;2.80;;
77880;SDS011;67077;50.298;18.996;2023-05-07T06:07:34;3.70;;;2.70;;
77880;SDS011;67077;50.298;18.996;2023-05-07T06:10:06;4.20;;;2.90;;
77880;SDS011;67077;50.298;18.996;2023-05-07T06:12:34;3.80;;;2.70;;
77880;SDS011;67077;50.298;18.996;2023-05-07T06:15:03;4.70;;;3.10;;
77880;SDS011;67077;50.298;18.996;2023-05-07T06:17:32;3.80;;;2.50;;
77880;SDS011;67077;50.298;18.996;2023-05-07T06:20:00;4.60;;;2.50;;
77880;SDS011;67077;50.298;18.996;2023-05-07T06:22:28;4.70;;;3.30;;
77880;SDS011;67077;50.298;18.996;2023-05-07T06:24:56;4.70;;;3.20;;
77880;SDS011;67077;50.298;18.996;2023-05-07T06:27:24;5.70;;;3.10;;
77880;SDS011;67077;50.298;18.996;2023-05-07T06:29:53;5.30;;;2.90;;
77880;SDS011;67077;50.298;18.996;2023-05-07T06:32:22;4.00;;;2.70;;
77880;SDS011;67077;50.298;18.996;2023-05-07T06:34:50;4.40;;;2.80;;
77880;SDS011;67077;50.298;18.996;2023-05-07T06:37:18;5.70;;;3.10;;
77880;SDS011;67077;50.298;18.996;2023-05-07T06:39:47;4.90;;;2.80;;
77880;SDS011;67077;50.298;18.996;2023-05-07T06:42:15;5.90;;;2.70;;
77880;SDS011;67077;50.298;18.996;2023-05-07T06:44:44;5.10;;;3.10;;
77880;SDS011;67077;50.298;18.996;2023-05-07T06:47:12;4.20;;;3.00;;
77880;SDS011;67077;50.298;18.996;2023-05-07T06:49:40;4.10;;;2.90;;
77880;SDS011;67077;50.298;18.996;2023-05-07T06:52:11;5.30;;;2.80;;
77880;SDS011;67077;50.298;18.996;2023-05-07T06:54:39;4.70;;;2.70;;
77880;SDS011;67077;50.298;18.996;2023-05-07T06:57:07;5.40;;;2.60;;
77880;SDS011;67077;50.298;18.996;2023-05-07T06:59:36;6.30;;;3.00;;
77880;SDS011;67077;50.298;18.996;2023-05-07T07:02:05;5.40;;;2.90;;
77880;SDS011;67077;50.298;18.996;2023-05-07T07:04:34;5.00;;;3.10;;
77880;SDS011;67077;50.298;18.996;2023-05-07T07:07:02;3.50;;;2.90;;
77880;SDS011;67077;50.298;18.996;2023-05-07T07:09:31;5.40;;;2.90;;
77880;SDS011;67077;50.298;18.996;2023-05-07T07:12:00;5.90;;;3.50;;
77880;SDS011;67077;50.298;18.996;2023-05-07T07:14:29;5.60;;;3.30;;
77880;SDS011;67077;50.298;18.996;2023-05-07T07:16:57;5.00;;;2.90;;
77880;SDS011;67077;50.298;18.996;2023-05-07T07:19:25;3.70;;;2.60;;
77880;SDS011;67077;50.298;18.996;2023-05-07T07:21:54;4.60;;;2.60;;
77880;SDS011;67077;50.298;18.996;2023-05-07T07:24:22;3.20;;;2.40;;
77880;SDS011;67077;50.298;18.996;2023-05-07T07:26:50;3.50;;;2.20;;
77880;SDS011;67077;50.298;18.996;2023-05-07T07:29:21;4.20;;;2.50;;
77880;SDS011;67077;50.298;18.996;2023-05-07T07:32:06;3.50;;;2.30;;
77880;SDS011;67077;50.298;18.996;2023-05-07T07:34:34;3.30;;;2.20;;
77880;SDS011;67077;50.298;18.996;2023-05-07T07:37:02;3.70;;;2.30;;
77880;SDS011;67077;50.298;18.996;2023-05-07T07:39:34;3.90;;;2.20;;
77880;SDS011;67077;50.298;18.996;2023-05-07T07:42:05;3.70;;;2.30;;
77880;SDS011;67077;50.298;18.996;2023-05-07T07:44:32;5.50;;;2.50;;
77880;SDS011;67077;50.298;18.996;2023-05-07T07:47:00;3.30;;;2.20;;
77880;SDS011;67077;50.298;18.996;2023-05-07T07:49:28;3.90;;;2.00;;
77880;SDS011;67077;50.298;18.996;2023-05-07T07:51:56;4.30;;;1.70;;
77880;SDS011;67077;50.298;18.996;2023-05-07T07:54:26;3.10;;;2.00;;
77880;SDS011;67077;50.298;18.996;2023-05-07T07:56:54;4.30;;;2.10;;
77880;SDS011;67077;50.298;18.996;2023-05-07T07:59:24;3.40;;;2.10;;
77880;SDS011;67077;50.298;18.996;2023-05-07T08:01:51;5.30;;;2.70;;
77880;SDS011;67077;50.298;18.996;2023-05-07T08:04:23;3.50;;;2.60;;
77880;SDS011;67077;50.298;18.996;2023-05-07T08:06:50;4.10;;;2.60;;
77880;SDS011;67077;50.298;18.996;2023-05-07T08:09:18;5.00;;;3.40;;
77880;SDS011;67077;50.298;18.996;2023-05-07T08:11:46;4.80;;;3.00;;
77880;SDS011;67077;50.298;18.996;2023-05-07T08:14:14;4.80;;;3.10;;
77880;SDS011;67077;50.298;18.996;2023-05-07T08:16:43;7.60;;;3.00;;
77880;SDS011;67077;50.298;18.996;2023-05-07T08:19:11;3.70;;;2.70;;
77880;SDS011;67077;50.298;18.996;2023-05-07T08:21:39;4.70;;;2.90;;
77880;SDS011;67077;50.298;18.996;2023-05-07T08:24:08;5.10;;;3.00;;
77880;SDS011;67077;50.298;18.996;2023-05-07T08:26:36;4.50;;;3.20;;
77880;SDS011;67077;50.298;18.996;2023-05-07T08:29:06;6.00;;;3.40;;
77880;SDS011;67077;50.298;18.996;2023-05-07T08:31:35;4.90;;;3.60;;
77880;SDS011;67077;50.298;18.996;2023-05-07T08:34:03;5.10;;;3.10;;
77880;SDS011;67077;50.298;18.996;2023-05-07T08:36:31;4.80;;;3.30;;
77880;SDS011;67077;50.298;18.996;2023-05-07T08:38:59;5.10;;;3.30;;
77880;SDS011;67077;50.298;18.996;2023-05-07T08:41:28;4.70;;;3.50;;
77880;SDS011;67077;50.298;18.996;2023-05-07T08:43:58;6.10;;;3.70;;
77880;SDS011;67077;50.298;18.996;2023-05-07T08:46:31;4.70;;;3.40;;
77880;SDS011;67077;50.298;18.996;2023-05-07T08:48:59;5.50;;;3.80;;
77880;SDS011;67077;50.298;18.996;2023-05-07T08:51:28;5.80;;;3.50;;
77880;SDS011;67077;50.298;18.996;2023-05-07T08:53:56;5.30;;;3.60;;
77880;SDS011;67077;50.298;18.996;2023-05-07T08:56:24;5.30;;;3.30;;
77880;SDS011;67077;50.298;18.996;2023-05-07T08:58:52;4.30;;;3.00;;
77880;SDS011;67077;50.298;18.996;2023-05-07T09:01:25;5.40;;;3.40;;
77880;SDS011;67077;50.298;18.996;2023-05-07T09:03:54;6.70;;;4.10;;
77880;SDS011;67077;50.298;18.996;2023-05-07T09:06:22;6.00;;;3.90;;
77880;SDS011;67077;50.298;18.996;2023-05-07T09:08:51;6.20;;;4.10;;
77880;SDS011;67077;50.298;18.996;2023-05-07T09:11:23;5.80;;;3.80;;
77880;SDS011;67077;50.298;18.996;2023-05-07T09:13:55;5.20;;;3.50;;
77880;SDS011;67077;50.298;18.996;2023-05-07T09:16:28;6.30;;;3.50;;
77880;SDS011;67077;50.298;18.996;2023-05-07T09:18:59;4.30;;;3.30;;
77880;SDS011;67077;50.298;18.996;2023-05-07T09:21:28;6.50;;;3.90;;
77880;SDS011;67077;50.298;18.996;2023-05-07T09:23:56;4.50;;;3.60;;
77880;SDS011;67077;50.298;18.996;2023-05-07T09:26:24;5.50;;;3.60;;
77880;SDS011;67077;50.298;18.996;2023-05-07T09:28:52;6.70;;;3.80;;
77880;SDS011;67077;50.298;18.996;2023-05-07T09:31:21;4.80;;;3.70;;
77880;SDS011;67077;50.298;18.996;2023-05-07T09:33:52;6.70;;;4.30;;
77880;SDS011;67077;50.298;18.996;2023-05-07T09:36:20;6.50;;;4.80;;
77880;SDS011;67077;50.298;18.996;2023-05-07T09:38:48;9.20;;;5.30;;
77880;SDS011;67077;50.298;18.996;2023-05-07T09:41:17;6.80;;;4.80;;
77880;SDS011;67077;50.298;18.996;2023-05-07T09:43:45;8.10;;;4.70;;
77880;SDS011;67077;50.298;18.996;2023-05-07T09:46:13;6.90;;;4.90;;
77880;SDS011;67077;50.298;18.996;2023-05-07T09:48:43;7.10;;;4.60;;
77880;SDS011;67077;50.298;18.996;2023-05-07T09:53:50;6.10;;;4.20;;
77880;SDS011;67077;50.298;18.996;2023-05-07T09:56:20;7.50;;;4.60;;
77880;SDS011;67077;50.298;18.996;2023-05-07T09:58:49;7.50;;;4.80;;
77880;SDS011;67077;50.298;18.996;2023-05-07T10:01:19;6.90;;;4.50;;
77880;SDS011;67077;50.298;18.996;2023-05-07T10:03:49;6.80;;;4.30;;
77880;SDS011;67077;50.298;18.996;2023-05-07T10:06:21;8.20;;;4.60;;
77880;SDS011;67077;50.298;18.996;2023-05-07T10:08:50;6.60;;;4.50;;
77880;SDS011;67077;50.298;18.996;2023-05-07T10:11:21;6.60;;;4.80;;
77880;SDS011;67077;50.298;18.996;2023-05-07T10:13:49;7.60;;;4.60;;
77880;SDS011;67077;50.298;18.996;2023-05-07T10:16:20;8.20;;;5.20;;
77880;SDS011;67077;50.298;18.996;2023-05-07T10:18:48;8.60;;;5.70;;
77880;SDS011;67077;50.298;18.996;2023-05-07T10:21:18;8.40;;;5.20;;
77880;SDS011;67077;50.298;18.996;2023-05-07T10:23:53;8.70;;;5.20;;
77880;SDS011;67077;50.298;18.996;2023-05-07T10:26:33;8.40;;;4.90;;
77880;SDS011;67077;50.298;18.996;2023-05-07T10:29:05;6.10;;;4.20;;
77880;SDS011;67077;50.298;18.996;2023-05-07T10:34:33;6.20;;;4.10;;
77880;SDS011;67077;50.298;18.996;2023-05-07T10:37:05;5.90;;;3.90;;
77880;SDS011;67077;50.298;18.996;2023-05-07T10:39:35;7.70;;;4.90;;
77880;SDS011;67077;50.298;18.996;2023-05-07T10:42:09;5.60;;;4.40;;
77880;SDS011;67077;50.298;18.996;2023-05-07T10:44:38;8.60;;;4.80;;
77880;SDS011;67077;50.298;18.996;2023-05-07T10:47:08;7.60;;;5.30;;
77880;SDS011;67077;50.298;18.996;2023-05-07T10:52:18;7.00;;;4.80;;
77880;SDS011;67077;50.298;18.996;2023-05-07T10:54:49;6.80;;;4.20;;
77880;SDS011;67077;50.298;18.996;2023-05-07T10:57:42;6.70;;;4.90;;
77880;SDS011;67077;50.298;18.996;2023-05-07T11:05:29;6.40;;;4.70;;
77880;SDS011;67077;50.298;18.996;2023-05-07T11:08:01;6.20;;;4.40;;
77880;SDS011;67077;50.298;18.996;2023-05-07T11:13:41;8.60;;;4.90;;
77880;SDS011;67077;50.298;18.996;2023-05-07T11:16:23;5.50;;;4.30;;
77880;SDS011;67077;50.298;18.996;2023-05-07T11:18:53;6.10;;;4.50;;
77880;SDS011;67077;50.298;18.996;2023-05-07T11:24:08;7.60;;;4.80;;
77880;SDS011;67077;50.298;18.996;2023-05-07T11:26:41;6.90;;;5.10;;
77880;SDS011;67077;50.298;18.996;2023-05-07T11:29:22;7.00;;;4.80;;
77880;SDS011;67077;50.298;18.996;2023-05-07T11:31:50;7.60;;;5.00;;
77880;SDS011;67077;50.298;18.996;2023-05-07T11:34:23;6.50;;;5.10;;
77880;SDS011;67077;50.298;18.996;2023-05-07T11:36:53;7.40;;;4.80;;
77880;SDS011;67077;50.298;18.996;2023-05-07T11:39:28;8.70;;;4.90;;
77880;SDS011;67077;50.298;18.996;2023-05-07T11:42:02;8.00;;;5.40;;
77880;SDS011;67077;50.298;18.996;2023-05-07T11:44:41;7.00;;;5.00;;
77880;SDS011;67077;50.298;18.996;2023-05-07T11:47:19;8.60;;;5.40;;
77880;SDS011;67077;50.298;18.996;2023-05-07T11:49:48;8.50;;;5.30;;
77880;SDS011;67077;50.298;18.996;2023-05-07T11:52:17;8.30;;;5.20;;
77880;SDS011;67077;50.298;18.996;2023-05-07T11:54:50;7.70;;;5.50;;
77880;SDS011;67077;50.298;18.996;2023-05-07T11:57:25;7.10;;;4.80;;
77880;SDS011;67077;50.298;18.996;2023-05-07T11:59:55;6.70;;;5.10;;
77880;SDS011;67077;50.298;18.996;2023-05-07T12:02:23;9.80;;;5.10;;
77880;SDS011;67077;50.298;18.996;2023-05-07T12:04:52;8.20;;;6.30;;
77880;SDS011;67077;50.298;18.996;2023-05-07T12:07:21;10.10;;;6.60;;
77880;SDS011;67077;50.298;18.996;2023-05-07T12:09:51;8.40;;;6.30;;
77880;SDS011;67077;50.298;18.996;2023-05-07T12:12:19;7.00;;;5.10;;
77880;SDS011;67077;50.298;18.996;2023-05-07T12:14:48;10.10;;;5.40;;
77880;SDS011;67077;50.298;18.996;2023-05-07T12:17:15;7.30;;;5.00;;
77880;SDS011;67077;50.298;18.996;2023-05-07T12:19:44;8.00;;;5.40;;
77880;SDS011;67077;50.298;18.996;2023-05-07T12:22:12;8.00;;;5.50;;
77880;SDS011;67077;50.298;18.996;2023-05-07T12:27:14;7.00;;;4.70;;
77880;SDS011;67077;50.298;18.996;2023-05-07T12:29:47;5.30;;;4.30;;
77880;SDS011;67077;50.298;18.996;2023-05-07T12:32:19;7.00;;;4.70;;
77880;SDS011;67077;50.298;18.996;2023-05-07T12:34:50;10.00;;;5.00;;
77880;SDS011;67077;50.298;18.996;2023-05-07T12:37:25;6.10;;;4.50;;
77880;SDS011;67077;50.298;18.996;2023-05-07T12:40:06;7.20;;;4.90;;
77880;SDS011;67077;50.298;18.996;2023-05-07T12:42:39;9.20;;;6.00;;
77880;SDS011;67077;50.298;18.996;2023-05-07T12:45:17;7.50;;;5.20;;
77880;SDS011;67077;50.298;18.996;2023-05-07T12:47:48;7.50;;;5.10;;
77880;SDS011;67077;50.298;18.996;2023-05-07T12:50:16;8.80;;;5.10;;
77880;SDS011;67077;50.298;18.996;2023-05-07T12:52:48;6.30;;;4.60;;
77880;SDS011;67077;50.298;18.996;2023-05-07T12:55:16;6.00;;;3.90;;
77880;SDS011;67077;50.298;18.996;2023-05-07T12:57:48;7.30;;;4.60;;
77880;SDS011;67077;50.298;18.996;2023-05-07T13:00:18;6.90;;;4.20;;
77880;SDS011;67077;50.298;18.996;2023-05-07T13:03:04;6.70;;;4.20;;
77880;SDS011;67077;50.298;18.996;2023-05-07T13:05:32;7.30;;;4.40;;
77880;SDS011;67077;50.298;18.996;2023-05-07T13:08:00;5.40;;;4.10;;
77880;SDS011;67077;50.298;18.996;2023-05-07T13:10:28;6.80;;;4.60;;
77880;SDS011;67077;50.298;18.996;2023-05-07T13:12:56;5.70;;;4.10;;
77880;SDS011;67077;50.298;18.996;2023-05-07T13:15:24;6.90;;;4.50;;
77880;SDS011;67077;50.298;18.996;2023-05-07T13:17:55;6.90;;;4.20;;
77880;SDS011;67077;50.298;18.996;2023-05-07T13:20:23;7.20;;;4.20;;
77880;SDS011;67077;50.298;18.996;2023-05-07T13:22:51;7.30;;;4.70;;
77880;SDS011;67077;50.298;18.996;2023-05-07T13:25:19;6.00;;;3.70;;
77880;SDS011;67077;50.298;18.996;2023-05-07T13:27:47;7.10;;;4.30;;
77880;SDS011;67077;50.298;18.996;2023-05-07T13:30:15;7.10;;;4.50;;
77880;SDS011;67077;50.298;18.996;2023-05-07T13:32:43;6.90;;;4.50;;
77880;SDS011;67077;50.298;18.996;2023-05-07T13:35:11;6.80;;;4.10;;
77880;SDS011;67077;50.298;18.996;2023-05-07T13:37:39;7.80;;;4.30;;
77880;SDS011;67077;50.298;18.996;2023-05-07T13:40:07;7.20;;;4.30;;
77880;SDS011;67077;50.298;18.996;2023-05-07T13:42:35;6.00;;;4.20;;
77880;SDS011;67077;50.298;18.996;2023-05-07T13:45:03;6.60;;;4.60;;
77880;SDS011;67077;50.298;18.996;2023-05-07T13:47:32;6.40;;;4.20;;
77880;SDS011;67077;50.298;18.996;2023-05-07T13:50:00;5.70;;;4.10;;
77880;SDS011;67077;50.298;18.996;2023-05-07T13:52:28;9.60;;;4.40;;
77880;SDS011;67077;50.298;18.996;2023-05-07T13:54:56;7.20;;;4.70;;
77880;SDS011;67077;50.298;18.996;2023-05-07T13:57:27;9.90;;;5.30;;
77880;SDS011;67077;50.298;18.996;2023-05-07T13:59:55;8.10;;;5.10;;
77880;SDS011;67077;50.298;18.996;2023-05-07T14:02:23;7.70;;;5.10;;
77880;SDS011;67077;50.298;18.996;2023-05-07T14:04:51;9.90;;;4.70;;
77880;SDS011;67077;50.298;18.996;2023-05-07T14:07:19;8.50;;;4.50;;
77880;SDS011;67077;50.298;18.996;2023-05-07T14:09:47;8.00;;;5.40;;
77880;SDS011;67077;50.298;18.996;2023-05-07T14:12:15;7.00;;;4.30;;
77880;SDS011;67077;50.298;18.996;2023-05-07T14:14:43;7.40;;;4.90;;
77880;SDS011;67077;50.298;18.996;2023-05-07T14:17:10;6.80;;;4.70;;
77880;SDS011;67077;50.298;18.996;2023-05-07T14:19:38;7.60;;;5.10;;
77880;SDS011;67077;50.298;18.996;2023-05-07T14:22:06;10.40;;;5.60;;
77880;SDS011;67077;50.298;18.996;2023-05-07T14:24:34;9.80;;;6.10;;
77880;SDS011;67077;50.298;18.996;2023-05-07T14:27:02;8.80;;;5.40;;
77880;SDS011;67077;50.298;18.996;2023-05-07T14:29:30;10.60;;;6.10;;
77880;SDS011;67077;50.298;18.996;2023-05-07T14:31:58;9.80;;;5.60;;
77880;SDS011;67077;50.298;18.996;2023-05-07T14:34:26;8.70;;;5.30;;
77880;SDS011;67077;50.298;18.996;2023-05-07T14:36:54;8.10;;;5.20;;
77880;SDS011;67077;50.298;18.996;2023-05-07T14:39:23;7.40;;;4.30;;
77880;SDS011;67077;50.298;18.996;2023-05-07T14:41:51;7.20;;;4.50;;
77880;SDS011;67077;50.298;18.996;2023-05-07T14:44:22;7.30;;;4.60;;
77880;SDS011;67077;50.298;18.996;2023-05-07T14:46:50;8.90;;;4.60;;
77880;SDS011;67077;50.298;18.996;2023-05-07T14:49:18;8.40;;;4.40;;
77880;SDS011;67077;50.298;18.996;2023-05-07T14:51:46;6.70;;;4.30;;
77880;SDS011;67077;50.298;18.996;2023-05-07T14:54:15;7.90;;;4.90;;
77880;SDS011;67077;50.298;18.996;2023-05-07T14:56:43;7.30;;;4.40;;
77880;SDS011;67077;50.298;18.996;2023-05-07T14:59:11;7.30;;;5.00;;
77880;SDS011;67077;50.298;18.996;2023-05-07T15:01:39;8.20;;;5.20;;
77880;SDS011;67077;50.298;18.996;2023-05-07T15:04:10;6.60;;;4.70;;
77880;SDS011;67077;50.298;18.996;2023-05-07T15:06:38;8.50;;;5.30;;
77880;SDS011;67077;50.298;18.996;2023-05-07T15:09:06;7.60;;;4.40;;
77880;SDS011;67077;50.298;18.996;2023-05-07T15:11:36;8.50;;;5.50;;
77880;SDS011;67077;50.298;18.996;2023-05-07T15:14:04;9.90;;;5.50;;
77880;SDS011;67077;50.298;18.996;2023-05-07T15:16:32;8.90;;;5.20;;
77880;SDS011;67077;50.298;18.996;2023-05-07T15:19:01;8.50;;;5.50;;
77880;SDS011;67077;50.298;18.996;2023-05-07T15:21:29;7.10;;;5.40;;
77880;SDS011;67077;50.298;18.996;2023-05-07T15:24:00;8.80;;;6.00;;
77880;SDS011;67077;50.298;18.996;2023-05-07T15:26:29;9.10;;;5.50;;
77880;SDS011;67077;50.298;18.996;2023-05-07T15:28:58;8.50;;;5.60;;
77880;SDS011;67077;50.298;18.996;2023-05-07T15:31:26;9.40;;;6.50;;
77880;SDS011;67077;50.298;18.996;2023-05-07T15:33:54;9.90;;;5.90;;
77880;SDS011;67077;50.298;18.996;2023-05-07T15:36:24;9.20;;;6.20;;
77880;SDS011;67077;50.298;18.996;2023-05-07T15:38:53;9.40;;;6.10;;
77880;SDS011;67077;50.298;18.996;2023-05-07T15:41:21;9.90;;;6.50;;
77880;SDS011;67077;50.298;18.996;2023-05-07T15:43:50;10.40;;;7.00;;
77880;SDS011;67077;50.298;18.996;2023-05-07T15:46:20;11.80;;;7.80;;
77880;SDS011;67077;50.298;18.996;2023-05-07T15:48:52;10.30;;;7.20;;
77880;SDS011;67077;50.298;18.996;2023-05-07T15:51:20;10.40;;;6.00;;
77880;SDS011;67077;50.298;18.996;2023-05-07T15:53:49;10.10;;;6.40;;
77880;SDS011;67077;50.298;18.996;2023-05-07T15:56:18;9.80;;;6.40;;
77880;SDS011;67077;50.298;18.996;2023-05-07T15:58:46;9.90;;;6.70;;
77880;SDS011;67077;50.298;18.996;2023-05-07T16:01:16;13.80;;;6.80;;
77880;SDS011;67077;50.298;18.996;2023-05-07T16:03:44;11.70;;;6.80;;
77880;SDS011;67077;50.298;18.996;2023-05-07T16:06:12;11.30;;;7.20;;
77880;SDS011;67077;50.298;18.996;2023-05-07T16:08:40;11.60;;;7.30;;
77880;SDS011;67077;50.298;18.996;2023-05-07T16:11:08;12.70;;;7.50;;
77880;SDS011;67077;50.298;18.996;2023-05-07T16:13:36;13.80;;;8.30;;
77880;SDS011;67077;50.298;18.996;2023-05-07T16:16:04;15.30;;;8.10;;
77880;SDS011;67077;50.298;18.996;2023-05-07T16:18:33;10.90;;;7.30;;
77880;SDS011;67077;50.298;18.996;2023-05-07T16:21:04;11.30;;;7.50;;
77880;SDS011;67077;50.298;18.996;2023-05-07T16:23:33;13.40;;;8.20;;
77880;SDS011;67077;50.298;18.996;2023-05-07T16:26:01;13.10;;;7.70;;
77880;SDS011;67077;50.298;18.996;2023-05-07T16:28:29;10.50;;;7.20;;
77880;SDS011;67077;50.298;18.996;2023-05-07T16:30:57;10.70;;;6.90;;
77880;SDS011;67077;50.298;18.996;2023-05-07T16:33:25;10.50;;;7.20;;
77880;SDS011;67077;50.298;18.996;2023-05-07T16:35:53;12.80;;;7.10;;
77880;SDS011;67077;50.298;18.996;2023-05-07T16:38:21;12.30;;;7.50;;
77880;SDS011;67077;50.298;18.996;2023-05-07T16:40:49;14.70;;;8.80;;
77880;SDS011;67077;50.298;18.996;2023-05-07T16:43:17;12.20;;;8.00;;
77880;SDS011;67077;50.298;18.996;2023-05-07T16:45:45;12.20;;;7.90;;
77880;SDS011;67077;50.298;18.996;2023-05-07T16:48:13;11.80;;;7.00;;
77880;SDS011;67077;50.298;18.996;2023-05-07T16:50:41;10.20;;;6.60;;
77880;SDS011;67077;50.298;18.996;2023-05-07T16:53:11;12.60;;;7.00;;
77880;SDS011;67077;50.298;18.996;2023-05-07T16:55:39;10.60;;;7.20;;
77880;SDS011;67077;50.298;18.996;2023-05-07T16:58:08;12.70;;;7.60;;
77880;SDS011;67077;50.298;18.996;2023-05-07T17:00:38;11.70;;;7.40;;
77880;SDS011;67077;50.298;18.996;2023-05-07T17:03:06;10.70;;;7.40;;
77880;SDS011;67077;50.298;18.996;2023-05-07T17:05:34;11.40;;;7.40;;
77880;SDS011;67077;50.298;18.996;2023-05-07T17:08:02;12.40;;;8.40;;
77880;SDS011;67077;50.298;18.996;2023-05-07T17:10:30;14.80;;;7.70;;
77880;SDS011;67077;50.298;18.996;2023-05-07T17:12:58;12.30;;;7.80;;
77880;SDS011;67077;50.298;18.996;2023-05-07T17:15:26;11.20;;;6.80;;
77880;SDS011;67077;50.298;18.996;2023-05-07T17:17:53;11.10;;;7.20;;
77880;SDS011;67077;50.298;18.996;2023-05-07T17:20:22;15.00;;;8.70;;
77880;SDS011;67077;50.298;18.996;2023-05-07T17:22:50;12.60;;;7.60;;
77880;SDS011;67077;50.298;18.996;2023-05-07T17:25:18;11.60;;;7.10;;
77880;SDS011;67077;50.298;18.996;2023-05-07T17:27:46;11.70;;;8.10;;
77880;SDS011;67077;50.298;18.996;2023-05-07T17:30:14;13.60;;;8.30;;
77880;SDS011;67077;50.298;18.996;2023-05-07T17:32:42;13.00;;;8.30;;
77880;SDS011;67077;50.298;18.996;2023-05-07T17:35:10;12.40;;;7.60;;
77880;SDS011;67077;50.298;18.996;2023-05-07T17:37:38;13.30;;;8.10;;
77880;SDS011;67077;50.298;18.996;2023-05-07T17:40:06;11.30;;;7.20;;
77880;SDS011;67077;50.298;18.996;2023-05-07T17:42:35;14.60;;;7.60;;
77880;SDS011;67077;50.298;18.996;2023-05-07T17:45:03;14.10;;;7.90;;
77880;SDS011;67077;50.298;18.996;2023-05-07T17:47:31;12.80;;;8.20;;
77880;SDS011;67077;50.298;18.996;2023-05-07T17:49:59;13.00;;;7.30;;
77880;SDS011;67077;50.298;18.996;2023-05-07T17:52:29;13.50;;;7.60;;
77880;SDS011;67077;50.298;18.996;2023-05-07T17:54:57;12.70;;;7.60;;
77880;SDS011;67077;50.298;18.996;2023-05-07T17:57:25;13.00;;;7.10;;
77880;SDS011;67077;50.298;18.996;2023-05-07T17:59:54;12.00;;;7.70;;
77880;SDS011;67077;50.298;18.996;2023-05-07T18:02:22;11.70;;;7.20;;
77880;SDS011;67077;50.298;18.996;2023-05-07T18:04:50;11.90;;;7.20;;
77880;SDS011;67077;50.298;18.996;2023-05-07T18:07:18;11.60;;;7.70;;
77880;SDS011;67077;50.298;18.996;2023-05-07T18:09:47;12.50;;;8.10;;
77880;SDS011;67077;50.298;18.996;2023-05-07T18:14:46;13.30;;;7.70;;
77880;SDS011;67077;50.298;18.996;2023-05-07T18:17:15;12.70;;;7.60;;
77880;SDS011;67077;50.298;18.996;2023-05-07T18:19:43;12.90;;;6.90;;
77880;SDS011;67077;50.298;18.996;2023-05-07T18:22:11;11.90;;;6.60;;
77880;SDS011;67077;50.298;18.996;2023-05-07T18:24:39;9.80;;;6.30;;
77880;SDS011;67077;50.298;18.996;2023-05-07T18:27:07;9.20;;;5.80;;
77880;SDS011;67077;50.298;18.996;2023-05-07T18:29:35;10.80;;;6.50;;
77880;SDS011;67077;50.298;18.996;2023-05-07T18:32:03;11.90;;;7.50;;
77880;SDS011;67077;50.298;18.996;2023-05-07T18:34:31;11.10;;;5.90;;
77880;SDS011;67077;50.298;18.996;2023-05-07T18:36:59;10.10;;;6.40;;
77880;SDS011;67077;50.298;18.996;2023-05-07T18:39:28;10.60;;;6.80;;
77880;SDS011;67077;50.298;18.996;2023-05-07T18:41:56;16.00;;;7.80;;
77880;SDS011;67077;50.298;18.996;2023-05-07T18:44:25;13.00;;;8.40;;
77880;SDS011;67077;50.298;18.996;2023-05-07T18:46:53;12.50;;;7.80;;
77880;SDS011;67077;50.298;18.996;2023-05-07T18:49:21;10.90;;;6.80;;
77880;SDS011;67077;50.298;18.996;2023-05-07T18:51:49;11.40;;;7.30;;
77880;SDS011;67077;50.298;18.996;2023-05-07T18:54:17;12.80;;;7.50;;
77880;SDS011;67077;50.298;18.996;2023-05-07T18:56:46;11.20;;;7.40;;
77880;SDS011;67077;50.298;18.996;2023-05-07T18:59:20;16.20;;;7.70;;
77880;SDS011;67077;50.298;18.996;2023-05-07T19:01:48;11.90;;;7.20;;
77880;SDS011;67077;50.298;18.996;2023-05-07T19:04:17;10.40;;;6.70;;
77880;SDS011;67077;50.298;18.996;2023-05-07T19:06:45;11.50;;;7.80;;
77880;SDS011;67077;50.298;18.996;2023-05-07T19:09:13;13.50;;;7.40;;
77880;SDS011;67077;50.298;18.996;2023-05-07T19:11:41;13.90;;;7.50;;
77880;SDS011;67077;50.298;18.996;2023-05-07T19:14:09;14.20;;;8.20;;
77880;SDS011;67077;50.298;18.996;2023-05-07T19:16:37;14.00;;;7.80;;
77880;SDS011;67077;50.298;18.996;2023-05-07T19:19:05;15.30;;;8.60;;
77880;SDS011;67077;50.298;18.996;2023-05-07T19:21:34;13.60;;;7.90;;
77880;SDS011;67077;50.298;18.996;2023-05-07T19:24:02;13.50;;;7.70;;
77880;SDS011;67077;50.298;18.996;2023-05-07T19:26:30;10.90;;;6.90;;
77880;SDS011;67077;50.298;18.996;2023-05-07T19:28:58;11.50;;;6.40;;
77880;SDS011;67077;50.298;18.996;2023-05-07T19:31:27;13.70;;;7.90;;
77880;SDS011;67077;50.298;18.996;2023-05-07T19:33:55;13.60;;;7.50;;
77880;SDS011;67077;50.298;18.996;2023-05-07T19:36:24;11.90;;;7.10;;
77880;SDS011;67077;50.298;18.996;2023-05-07T19:38:52;12.40;;;6.50;;
77880;SDS011;67077;50.298;18.996;2023-05-07T19:41:21;11.10;;;7.00;;
77880;SDS011;67077;50.298;18.996;2023-05-07T19:43:49;12.60;;;7.30;;
77880;SDS011;67077;50.298;18.996;2023-05-07T19:46:18;11.90;;;6.80;;
77880;SDS011;67077;50.298;18.996;2023-05-07T19:48:46;12.30;;;6.80;;
77880;SDS011;67077;50.298;18.996;2023-05-07T19:51:14;10.80;;;6.60;;
77880;SDS011;67077;50.298;18.996;2023-05-07T19:53:42;12.50;;;7.00;;
77880;SDS011;67077;50.298;18.996;2023-05-07T19:56:11;10.00;;;5.60;;
77880;SDS011;67077;50.298;18.996;2023-05-07T19:58:40;9.80;;;6.80;;
77880;SDS011;67077;50.298;18.996;2023-05-07T20:01:08;10.20;;;6.40;;
77880;SDS011;67077;50.298;18.996;2023-05-07T20:03:36;11.20;;;6.50;;
77880;SDS011;67077;50.298;18.996;2023-05-07T20:06:05;9.70;;;5.90;;
77880;SDS011;67077;50.298;18.996;2023-05-07T20:08:33;11.20;;;6.40;;
77880;SDS011;67077;50.298;18.996;2023-05-07T20:11:01;13.60;;;6.60;;
77880;SDS011;67077;50.298;18.996;2023-05-07T20:13:29;10.10;;;6.50;;
77880;SDS011;67077;50.298;18.996;2023-05-07T20:15:58;9.60;;;6.10;;
77880;SDS011;67077;50.298;18.996;2023-05-07T20:18:27;11.80;;;6.30;;
77880;SDS011;67077;50.298;18.996;2023-05-07T20:20:56;10.30;;;6.70;;
77880;SDS011;67077;50.298;18.996;2023-05-07T20:23:24;10.10;;;6.60;;
77880;SDS011;67077;50.298;18.996;2023-05-07T20:25:52;9.30;;;5.40;;
77880;SDS011;67077;50.298;18.996;2023-05-07T20:28:21;10.00;;;6.30;;
77880;SDS011;67077;50.298;18.996;2023-05-07T20:30:49;9.80;;;5.70;;
77880;SDS011;67077;50.298;18.996;2023-05-07T20:33:18;8.80;;;5.40;;
77880;SDS011;67077;50.298;18.996;2023-05-07T20:35:46;10.40;;;5.80;;
77880;SDS011;67077;50.298;18.996;2023-05-07T20:38:14;9.80;;;6.10;;
77880;SDS011;67077;50.298;18.996;2023-05-07T20:40:42;9.10;;;5.70;;
77880;SDS011;67077;50.298;18.996;2023-05-07T20:43:10;9.40;;;5.40;;
77880;SDS011;67077;50.298;18.996;2023-05-07T20:45:38;11.20;;;5.70;;
77880;SDS011;67077;50.298;18.996;2023-05-07T20:48:06;8.30;;;5.70;;
77880;SDS011;67077;50.298;18.996;2023-05-07T20:50:34;8.40;;;5.40;;
77880;SDS011;67077;50.298;18.996;2023-05-07T20:53:02;10.10;;;5.40;;
77880;SDS011;67077;50.298;18.996;2023-05-07T20:55:30;8.60;;;5.60;;